Time;durP1;ratioP1;P1;durP2;ratioP2;P2;SDS_P1;SDS_P2;PMS_P1;PMS_P2;Temp;Humidity;BMP_temperature;BMP_pressure;BME280_temperature;BME280_humidity;BME280_pressure;Samples;Min_cycle;Max_cycle;Signal;HPM_P1;HPM_P2
2022/12/10 00:00:15;;;;;;;54.20;23.60;;;;;;;0.47;100.00;97312.55;214130;1310;23005;-76
2022/12/10 00:05:17;;;;;;;56.80;24.10;;;;;;;0.47;100.00;97311.59;213933;1310;24529;-74
2022/12/10 00:10:18;;;;;;;52.30;22.00;;;;;;;0.47;100.00;97315.71;214112;1310;22465;-74
2022/12/10 00:15:20;;;;;;;51.30;20.90;;;;;;;0.48;100.00;97317.56;214264;1310;22474;-76
2022/12/10 00:20:22;;;;;;;48.00;19.50;;;;;;;0.49;100.00;97317.15;214144;1310;25457;-75
2022/12/10 00:25:23;;;;;;;52.50;21.80;;;;;;;0.50;100.00;97313.84;214122;1310;22566;-75
2022/12/10 00:30:25;;;;;;;52.10;20.80;;;;;;;0.51;100.00;97312.41;213790;1310;22503;-74
2022/12/10 00:35:28;;;;;;;53.70;21.50;;;;;;;0.49;100.00;97310.83;214099;1312;22505;-74
2022/12/10 00:40:30;;;;;;;46.70;20.70;;;;;;;0.49;100.00;97309.51;214254;1313;23594;-75
2022/12/10 00:45:32;;;;;;;47.60;21.60;;;;;;;0.48;100.00;97314.35;214089;1313;22637;-75
2022/12/10 00:50:34;;;;;;;51.20;21.10;;;;;;;0.46;100.00;97322.57;214098;1312;22540;-75
2022/12/10 00:55:35;;;;;;;45.10;19.60;;;;;;;0.46;100.00;97326.20;214130;1312;25283;-75
2022/12/10 01:00:37;;;;;;;53.20;21.70;;;;;;;0.45;100.00;97334.31;214019;1313;25337;-74
2022/12/10 01:05:39;;;;;;;43.10;19.60;;;;;;;0.44;100.00;97337.45;214075;1312;22468;-74
2022/12/10 01:10:41;;;;;;;44.90;20.30;;;;;;;0.42;100.00;97335.83;214263;1311;24272;-75
2022/12/10 01:15:42;;;;;;;44.70;19.40;;;;;;;0.41;100.00;97329.29;214009;1310;22725;-75
2022/12/10 01:20:44;;;;;;;45.60;20.00;;;;;;;0.40;100.00;97340.03;214230;1312;24253;-75
2022/12/10 01:25:46;;;;;;;47.60;19.90;;;;;;;0.40;100.00;97342.81;214065;1310;22479;-75
2022/12/10 01:30:48;;;;;;;47.50;20.10;;;;;;;0.41;100.00;97342.04;214077;1311;22470;-76
2022/12/10 01:35:50;;;;;;;49.40;19.70;;;;;;;0.42;100.00;97347.16;214089;1309;25303;-74
2022/12/10 01:40:51;;;;;;;44.60;18.60;;;;;;;0.43;100.00;97359.86;214237;1312;23410;-76
2022/12/10 01:45:53;;;;;;;49.00;19.50;;;;;;;0.45;100.00;97356.91;214041;1304;22604;-75
2022/12/10 01:50:55;;;;;;;48.70;19.90;;;;;;;0.46;100.00;97354.45;213960;1313;24285;-75
2022/12/10 01:55:57;;;;;;;45.70;19.80;;;;;;;0.47;100.00;97347.96;213909;1312;22491;-75
2022/12/10 02:01:11;;;;;;;46.50;19.60;;;;;;;0.48;100.00;97353.55;214107;1312;22477;-75
2022/12/10 02:06:29;;;;;;;44.60;18.90;;;;;;;0.50;100.00;97371.70;213883;1312;24320;-75
2022/12/10 02:11:59;;;;;;;38.40;17.50;;;;;;;0.52;100.00;97382.98;213936;1312;22516;-75
2022/12/10 02:17:14;;;;;;;44.20;18.80;;;;;;;0.54;100.00;97389.79;214221;1311;25259;-74
2022/12/10 02:22:20;;;;;;;47.20;18.30;;;;;;;0.55;100.00;97390.22;214046;1313;22581;-75
2022/12/10 02:27:44;;;;;;;44.60;18.20;;;;;;;0.57;100.00;97380.30;214059;1310;22489;-76
2022/12/10 02:32:49;;;;;;;45.70;18.70;;;;;;;0.57;100.00;97372.88;214174;1305;24350;-75
2022/12/10 02:37:59;;;;;;;44.20;18.70;;;;;;;0.58;100.00;97366.93;214135;1313;22532;-75
2022/12/10 02:43:02;;;;;;;42.00;17.90;;;;;;;0.61;100.00;97370.31;214035;1311;27224;-76
2022/12/10 02:48:04;;;;;;;39.90;18.20;;;;;;;0.62;100.00;97365.38;213909;1312;24259;-75
2022/12/10 02:53:15;;;;;;;47.10;19.90;;;;;;;0.60;100.00;97364.03;214086;1312;23942;-75
2022/12/10 02:58:38;;;;;;;44.90;18.60;;;;;;;0.59;100.00;97365.71;213910;1312;24376;-75
2022/12/10 03:03:45;;;;;;;42.90;16.80;;;;;;;0.59;100.00;97382.27;214014;1312;25261;-75
2022/12/10 03:09:02;;;;;;;43.90;18.50;;;;;;;0.60;100.00;97392.50;213975;1313;22565;-76
2022/12/10 03:14:18;;;;;;;46.10;18.60;;;;;;;0.62;100.00;97391.88;214065;1308;22934;-74
2022/12/10 03:19:25;;;;;;;45.70;18.00;;;;;;;0.62;100.00;97387.92;214025;1313;24357;-76
2022/12/10 03:24:28;;;;;;;49.00;18.40;;;;;;;0.62;100.00;97390.04;214159;1313;22462;-74
2022/12/10 03:29:51;;;;;;;53.40;20.50;;;;;;;0.62;100.00;97392.50;214256;1304;22479;-75
2022/12/10 03:34:57;;;;;;;41.20;17.20;;;;;;;0.63;100.00;97409.33;214094;1310;22598;-76
2022/12/10 03:39:59;;;;;;;51.40;20.30;;;;;;;0.64;100.00;97416.70;214148;1310;25078;-75
2022/12/10 03:45:01;;;;;;;49.60;19.20;;;;;;;0.64;100.00;97420.98;214218;1310;25266;-76
2022/12/10 03:50:03;;;;;;;57.20;20.20;;;;;;;0.65;100.00;97418.08;214224;1313;24369;-75
2022/12/10 03:55:06;;;;;;;59.40;21.40;;;;;;;0.65;100.00;97414.52;214023;1312;23222;-75
2022/12/10 04:00:09;;;;;;;51.70;20.30;;;;;;;0.66;100.00;97410.02;214186;1312;25258;-75
2022/12/10 04:05:15;;;;;;;60.70;22.40;;;;;;;0.66;100.00;97419.36;214138;1312;26337;-75
2022/12/10 04:10:17;;;;;;;56.40;22.20;;;;;;;0.67;100.00;97430.21;214210;1312;25269;-75
2022/12/10 04:31:20;;;;;;;52.50;20.30;;;;;;;0.68;100.00;97448.35;214233;1313;25442;-75
2022/12/10 04:36:21;;;;;;;56.00;21.80;;;;;;;0.68;100.00;97458.70;214209;1312;25468;-75
2022/12/10 04:41:23;;;;;;;59.60;22.90;;;;;;;0.69;100.00;97468.71;214110;1313;22666;-76
2022/12/10 04:46:25;;;;;;;61.80;24.40;;;;;;;0.72;100.00;97476.73;214236;1309;22711;-75
2022/12/10 04:51:27;;;;;;;59.10;23.40;;;;;;;0.73;100.00;97472.27;214254;1308;22463;-75
2022/12/10 04:56:30;;;;;;;59.30;22.60;;;;;;;0.75;100.00;97474.48;213809;1309;22466;-74
2022/12/10 05:01:32;;;;;;;61.30;23.30;;;;;;;0.75;100.00;97482.08;214262;1313;25325;-75
2022/12/10 05:06:35;;;;;;;59.10;21.90;;;;;;;0.76;100.00;97472.23;214071;1312;22614;-75
2022/12/10 05:11:37;;;;;;;63.00;23.00;;;;;;;0.76;100.00;97478.81;214056;1312;26400;-75
2022/12/10 05:16:38;;;;;;;62.30;23.00;;;;;;;0.77;100.00;97482.40;214178;1313;22484;-75
2022/12/10 05:27:01;;;;;;;60.60;24.50;;;;;;;0.75;100.00;97480.39;214024;1311;24469;-75
2022/12/10 05:32:04;;;;;;;62.40;23.00;;;;;;;0.75;100.00;97479.91;214205;1312;22462;-74
2022/12/10 05:37:05;;;;;;;62.40;24.20;;;;;;;0.72;100.00;97482.96;214015;1310;22506;-75
2022/12/10 05:42:07;;;;;;;66.80;24.60;;;;;;;0.69;100.00;97481.20;214121;1312;22902;-74
2022/12/10 05:47:09;;;;;;;70.20;23.00;;;;;;;0.68;100.00;97491.90;214177;1312;25413;-75
2022/12/10 05:52:11;;;;;;;66.20;23.10;;;;;;;0.68;100.00;97483.14;214145;1313;25326;-75
2022/12/10 05:57:13;;;;;;;62.20;21.70;;;;;;;0.64;100.00;97468.85;213950;1309;22460;-76
2022/12/10 06:02:15;;;;;;;63.70;24.00;;;;;;;0.59;100.00;97451.27;214122;1309;24458;-75
2022/12/10 06:07:17;;;;;;;58.90;23.20;;;;;;;0.55;100.00;97434.70;214276;1312;25367;-75
2022/12/10 06:12:19;;;;;;;67.30;22.50;;;;;;;0.50;100.00;97453.91;214176;1312;25434;-78
2022/12/10 06:17:20;;;;;;;57.60;21.60;;;;;;;0.47;100.00;97475.86;214164;1311;25574;-77
2022/12/10 06:22:22;;;;;;;66.10;23.50;;;;;;;0.48;100.00;97490.10;213916;1313;24307;-75
2022/12/10 06:27:24;;;;;;;63.10;22.70;;;;;;;0.50;100.00;97512.20;214080;1312;24307;-76
2022/12/10 06:32:26;;;;;;;65.30;21.50;;;;;;;0.53;100.00;97510.89;214098;1312;22526;-76
2022/12/10 06:37:28;;;;;;;60.80;20.30;;;;;;;0.54;100.00;97531.40;214160;1310;25428;-77
2022/12/10 06:42:29;;;;;;;62.40;22.60;;;;;;;0.55;100.00;97532.73;213953;1310;24381;-76
2022/12/10 06:47:31;;;;;;;66.10;23.60;;;;;;;0.55;100.00;97537.21;214128;1310;22497;-77
2022/12/10 06:52:33;;;;;;;62.80;22.60;;;;;;;0.55;100.00;97541.54;214028;1310;25241;-76
2022/12/10 06:57:35;;;;;;;73.40;24.30;;;;;;;0.56;100.00;97546.08;214052;1310;25287;-75
2022/12/10 07:02:37;;;;;;;71.70;23.40;;;;;;;0.56;100.00;97546.39;214025;1310;24356;-76
2022/12/10 07:07:39;;;;;;;69.20;22.80;;;;;;;0.54;100.00;97547.43;213977;1300;22485;-76
2022/12/10 07:12:41;;;;;;;81.40;24.70;;;;;;;0.55;100.00;97531.67;214165;1310;22601;-76
2022/12/10 07:17:43;;;;;;;70.60;22.80;;;;;;;0.57;100.00;97543.60;214112;1310;22500;-75
2022/12/10 07:22:45;;;;;;;65.70;21.60;;;;;;;0.57;100.00;97555.08;214045;1310;25308;-75
2022/12/10 07:27:46;;;;;;;90.30;27.40;;;;;;;0.60;100.00;97558.05;214155;1310;22476;-76
2022/12/10 07:32:48;;;;;;;96.60;28.90;;;;;;;0.62;100.00;97562.98;214157;1310;26574;-77
2022/12/10 07:37:50;;;;;;;101.20;29.80;;;;;;;0.66;100.00;97572.23;213947;1310;24760;-76
2022/12/10 07:42:52;;;;;;;91.40;29.50;;;;;;;0.70;100.00;97578.64;214153;1287;25227;-74
2022/12/10 07:47:53;;;;;;;87.00;27.90;;;;;;;0.74;100.00;97584.46;214405;1289;25292;-76
2022/12/10 07:52:55;;;;;;;62.70;23.40;;;;;;;0.76;100.00;97579.67;214487;1289;23213;-76
2022/12/10 07:57:57;;;;;;;81.60;26.00;;;;;;;0.77;100.00;97577.05;214315;1287;22495;-75
2022/12/10 08:02:58;;;;;;;90.50;27.40;;;;;;;0.75;100.00;97574.35;214505;1288;22560;-76
2022/12/10 08:08:00;;;;;;;90.00;27.20;;;;;;;0.75;100.00;97579.10;214706;1284;22504;-75
2022/12/10 08:13:08;;;;;;;76.20;26.90;;;;;;;0.74;100.00;97567.02;214441;1284;22481;-75
2022/12/10 08:18:10;;;;;;;85.60;27.20;;;;;;;0.72;100.00;97556.19;214588;1284;22694;-75
2022/12/10 08:23:11;;;;;;;81.70;26.20;;;;;;;0.68;100.00;97555.53;214490;1295;24276;-75
2022/12/10 08:28:13;;;;;;;79.40;29.40;;;;;;;0.67;100.00;97554.58;214514;1293;22633;-75
2022/12/10 08:33:15;;;;;;;89.30;27.40;;;;;;;0.67;100.00;97565.17;214448;1309;22686;-76
2022/12/10 08:38:17;;;;;;;86.20;27.50;;;;;;;0.69;100.00;97573.42;214497;1298;22617;-76
2022/12/10 08:43:19;;;;;;;76.50;24.00;;;;;;;0.71;100.00;97584.34;214303;1305;22756;-74
2022/12/10 08:48:20;;;;;;;73.50;24.80;;;;;;;0.75;100.00;97585.53;214629;1286;25478;-75
2022/12/10 08:53:22;;;;;;;87.10;25.60;;;;;;;0.77;100.00;97584.39;214625;1286;25538;-75
2022/12/10 08:58:24;;;;;;;84.20;24.80;;;;;;;0.79;100.00;97587.29;214407;1309;24250;-75
2022/12/10 09:03:26;;;;;;;89.00;27.60;;;;;;;0.79;100.00;97589.55;214318;1310;22465;-76
2022/12/10 09:08:27;;;;;;;78.50;27.00;;;;;;;0.82;100.00;97584.52;214662;1309;24369;-75
2022/12/10 09:13:29;;;;;;;102.40;33.80;;;;;;;0.84;100.00;97578.63;214473;1294;24359;-74
2022/12/10 09:18:31;;;;;;;79.10;27.70;;;;;;;0.87;100.00;97573.69;214301;1287;22540;-75
2022/12/10 09:23:34;;;;;;;64.50;20.80;;;;;;;0.88;100.00;97570.24;214577;1300;25476;-74
2022/12/10 09:28:37;;;;;;;76.80;25.10;;;;;;;0.87;100.00;97569.25;214616;1294;22467;-74
2022/12/10 09:33:41;;;;;;;87.80;27.50;;;;;;;0.88;100.00;97568.27;214488;1288;24209;-74
2022/12/10 09:38:44;;;;;;;91.50;29.60;;;;;;;0.85;100.00;97558.34;214581;1309;22502;-74
2022/12/10 09:43:56;;;;;;;98.50;28.90;;;;;;;0.80;100.00;97547.55;214729;1293;23776;-74
2022/12/10 09:49:10;;;;;;;83.40;25.00;;;;;;;0.77;100.00;97553.33;214654;1281;22616;-74
2022/12/10 09:54:22;;;;;;;82.60;24.70;;;;;;;0.73;100.00;97554.73;214438;1281;22479;-74
2022/12/10 09:59:33;;;;;;;77.70;23.30;;;;;;;0.74;100.00;97550.24;214497;1284;22531;-72
2022/12/10 10:04:35;;;;;;;107.40;31.50;;;;;;;0.73;100.00;97545.55;214811;1284;25270;-74
2022/12/10 10:09:40;;;;;;;88.60;27.20;;;;;;;0.75;100.00;97550.05;214552;1281;24725;-74
2022/12/10 10:14:44;;;;;;;82.60;25.60;;;;;;;0.79;100.00;97553.91;214371;1285;23576;-74
2022/12/10 10:19:46;;;;;;;89.90;25.00;;;;;;;0.80;100.00;97554.92;214451;1285;22476;-73
2022/12/10 10:24:48;;;;;;;88.80;25.80;;;;;;;0.82;100.00;97566.55;214495;1284;22684;-74
2022/12/10 10:29:52;;;;;;;83.40;22.40;;;;;;;0.88;100.00;97571.85;214602;1284;22688;-74
2022/12/10 10:34:59;;;;;;;99.80;32.80;;;;;;;0.96;100.00;97561.45;214482;1295;22494;-74
2022/12/10 10:40:02;;;;;;;76.60;24.60;;;;;;;0.97;100.00;97561.45;214316;1286;128118;-72
2022/12/10 10:45:30;;;;;;;64.10;21.60;;;;;;;0.97;100.00;97543.95;214316;1289;22480;-74
2022/12/10 10:50:44;;;;;;;82.00;25.00;;;;;;;0.98;100.00;97548.21;214180;1310;25217;-75
2022/12/10 10:55:47;;;;;;;77.90;22.80;;;;;;;0.98;100.00;97557.71;214579;1310;22479;-73
2022/12/10 11:01:08;;;;;;;85.50;26.70;;;;;;;1.01;100.00;97552.02;214554;1284;25916;-74
2022/12/10 11:06:12;;;;;;;93.50;25.90;;;;;;;1.00;100.00;97546.49;214512;1288;22956;-75
2022/12/10 11:11:31;;;;;;;93.30;27.10;;;;;;;0.99;100.00;97553.71;214566;1281;26420;-72
2022/12/10 11:16:33;;;;;;;85.10;27.20;;;;;;;1.00;100.00;97551.98;214334;1290;22563;-74
2022/12/10 11:21:35;;;;;;;95.80;30.30;;;;;;;1.02;100.00;97549.25;214494;1310;25328;-74
2022/12/10 11:26:54;;;;;;;98.30;28.00;;;;;;;1.07;100.00;97555.96;214660;1295;23019;-75
2022/12/10 11:32:21;;;;;;;97.90;27.60;;;;;;;1.08;100.00;97558.77;214580;1281;22745;-74
2022/12/10 11:38:06;;;;;;;98.10;30.20;;;;;;;1.09;100.00;97541.73;214525;1288;23940;-76
2022/12/10 11:43:25;;;;;;;82.10;27.40;;;;;;;1.11;100.00;97538.80;214437;1295;22921;-76
2022/12/10 11:48:40;;;;;;;73.50;22.80;;;;;;;1.10;100.00;97540.73;214306;1296;22615;-75
2022/12/10 11:54:02;;;;;;;92.70;28.50;;;;;;;1.11;100.00;97530.62;214637;1300;25342;-75
2022/12/10 11:59:08;;;;;;;87.00;25.90;;;;;;;1.12;100.00;97537.37;214527;1281;22471;-75
2022/12/10 12:04:18;;;;;;;61.10;21.10;;;;;;;1.17;100.00;97551.23;214429;1304;23469;-77
2022/12/10 12:09:28;;;;;;;67.10;25.20;;;;;;;1.23;100.00;97547.45;213951;1310;22610;-77
2022/12/10 12:14:50;;;;;;;59.30;22.90;;;;;;;1.25;100.00;97540.17;214104;1306;25273;-76
2022/12/10 12:19:57;;;;;;;54.50;21.40;;;;;;;1.24;100.00;97541.27;214191;1310;22471;-77
2022/12/10 12:25:05;;;;;;;66.10;21.00;;;;;;;1.23;100.00;97534.41;214070;1307;23801;-76
2022/12/10 12:30:15;;;;;;;54.60;20.40;;;;;;;1.22;100.00;97534.98;214131;1310;23813;-76
2022/12/10 12:35:22;;;;;;;67.50;25.50;;;;;;;1.20;100.00;97534.30;214137;1310;25457;-78
2022/12/10 12:40:34;;;;;;;64.50;21.90;;;;;;;1.21;100.00;97537.48;214113;1310;24077;-77
2022/12/10 12:45:43;;;;;;;64.10;23.60;;;;;;;1.19;100.00;97544.96;214380;1310;25340;-77
2022/12/10 12:50:49;;;;;;;67.20;26.00;;;;;;;1.17;100.00;97529.95;214148;1310;22472;-80
2022/12/10 12:56:07;;;;;;;52.10;21.30;;;;;;;1.13;100.00;97526.77;214261;1310;22568;-77
2022/12/10 13:01:32;;;;;;;64.50;24.40;;;;;;;1.10;100.00;97535.31;214148;1310;22494;-78
2022/12/10 13:06:43;;;;;;;52.20;18.80;;;;;;;1.08;100.00;97545.25;214078;1308;24300;-77
2022/12/10 13:12:04;;;;;;;66.80;24.40;;;;;;;1.06;100.00;97547.95;214061;1310;22439;-79
2022/12/10 13:17:30;;;;;;;64.70;24.20;;;;;;;1.04;100.00;97545.89;214120;1310;22478;-77
2022/12/10 13:22:37;;;;;;;64.60;24.30;;;;;;;1.04;100.00;97544.56;213958;1310;24743;-77
2022/12/10 13:27:42;;;;;;;76.90;24.90;;;;;;;1.01;100.00;97546.23;214128;1310;23183;-77
2022/12/10 13:32:47;;;;;;;66.20;23.10;;;;;;;0.95;100.00;97548.27;214160;1310;22863;-77
2022/12/10 13:37:49;;;;;;;46.00;17.60;;;;;;;0.91;100.00;97555.67;214224;1310;22524;-77
2022/12/10 13:48:38;;;;;;;69.00;23.30;;;;;;;0.86;100.00;97569.46;214024;1310;22491;-77
2022/12/10 13:53:48;;;;;;;52.90;17.00;;;;;;;0.82;100.00;97574.39;213953;1305;23347;-76
2022/12/10 13:58:56;;;;;;;57.80;20.80;;;;;;;0.78;100.00;97585.12;214051;1310;24395;-75
2022/12/10 14:03:58;;;;;;;58.40;21.30;;;;;;;0.77;100.00;97582.52;214257;1310;22529;-76
2022/12/10 14:09:06;;;;;;;47.90;17.30;;;;;;;0.76;100.00;97577.68;214310;1310;22548;-76
2022/12/10 14:14:13;;;;;;;53.80;18.30;;;;;;;0.77;100.00;97580.37;214009;1310;22883;-76
2022/12/10 14:19:18;;;;;;;65.60;21.60;;;;;;;0.79;100.00;97583.23;214108;1310;22478;-76
2022/12/10 14:24:38;;;;;;;76.40;24.70;;;;;;;0.80;100.00;97585.36;214151;1310;22470;-77
2022/12/10 14:29:44;;;;;;;;;;;;;;;0.79;100.00;97589.72;214211;1310;22517;-77
2022/12/10 14:34:55;;;;;;;84.70;26.50;;;;;;;0.78;100.00;97593.23;214087;1310;22484;-76
2022/12/10 14:39:58;;;;;;;80.50;26.20;;;;;;;0.76;100.00;97586.33;214020;1310;22545;-76
2022/12/10 14:45:04;;;;;;;83.00;26.50;;;;;;;0.75;100.00;97583.95;214318;1287;22485;-77
2022/12/10 14:50:15;;;;;;;91.20;28.40;;;;;;;0.74;100.00;97595.48;214108;1310;22463;-76
2022/12/10 14:55:21;;;;;;;72.20;22.70;;;;;;;0.71;100.00;97595.88;214183;1310;25267;-75
2022/12/10 15:00:23;;;;;;;79.50;24.40;;;;;;;0.68;100.00;97600.66;214333;1310;24256;-76
2022/12/10 15:05:28;;;;;;;58.30;22.00;;;;;;;0.66;100.00;97601.80;214056;1310;24257;-77
2022/12/10 15:10:40;;;;;;;75.60;25.30;;;;;;;0.62;100.00;97600.98;214062;1310;22509;-77
2022/12/10 15:15:43;;;;;;;66.30;22.60;;;;;;;0.60;100.00;97604.17;213981;1310;25308;-76
2022/12/10 15:20:51;;;;;;;86.30;25.80;;;;;;;0.58;100.00;97593.36;214196;1310;22472;-75
2022/12/10 15:25:59;;;;;;;97.90;30.00;;;;;;;0.55;100.00;97589.02;214368;1310;22746;-75
2022/12/10 15:31:26;;;;;;;90.30;26.80;;;;;;;0.53;100.00;97590.33;214283;1310;22466;-75
2022/12/10 15:36:34;;;;;;;74.70;24.30;;;;;;;0.53;100.00;97595.59;214305;1310;22520;-76
2022/12/10 15:41:49;;;;;;;91.60;26.30;;;;;;;0.52;100.00;97592.73;214097;1310;25214;-76
2022/12/10 15:47:09;;;;;;;72.10;21.70;;;;;;;0.50;100.00;97594.63;214319;1310;22469;-77
2022/12/10 15:52:20;;;;;;;84.10;24.40;;;;;;;0.50;100.00;97589.23;214153;1310;22491;-76
2022/12/10 15:57:46;;;;;;;87.20;26.10;;;;;;;0.50;100.00;97592.57;214545;1309;24279;-76
2022/12/10 16:03:05;;;;;;;100.00;28.00;;;;;;;0.46;100.00;97595.75;214093;1310;22505;-75
2022/12/10 16:08:39;;;;;;;98.30;27.10;;;;;;;0.44;100.00;97596.58;214189;1310;25233;-76
2022/12/10 16:13:49;;;;;;;88.30;25.20;;;;;;;0.41;100.00;97592.44;213951;1310;25494;-77
2022/12/10 16:18:51;;;;;;;78.30;24.00;;;;;;;0.37;100.00;97587.14;214369;1310;24358;-77
2022/12/10 16:23:52;;;;;;;83.70;25.60;;;;;;;0.34;100.00;97586.96;214156;1310;22473;-77
2022/12/10 16:28:54;;;;;;;85.20;25.30;;;;;;;0.32;100.00;97587.16;214091;1310;25316;-76
2022/12/10 16:33:56;;;;;;;85.90;24.20;;;;;;;0.30;100.00;97587.30;214133;1310;24363;-76
2022/12/10 16:38:58;;;;;;;77.70;23.40;;;;;;;0.27;100.00;97585.84;214265;1307;22713;-78
2022/12/10 16:44:01;;;;;;;83.20;24.40;;;;;;;0.26;100.00;97580.25;214368;1298;22470;-76
2022/12/10 16:49:03;;;;;;;83.20;25.60;;;;;;;0.26;100.00;97581.62;214157;1310;22498;-75
2022/12/10 16:54:05;;;;;;;72.50;21.60;;;;;;;0.24;100.00;97574.23;214196;1310;25192;-76
2022/12/10 16:59:06;;;;;;;77.00;23.50;;;;;;;0.19;100.00;97570.06;214360;1310;22479;-76
2022/12/10 17:04:09;;;;;;;64.90;20.80;;;;;;;0.14;100.00;97573.35;214257;1309;22519;-76
2022/12/10 17:09:11;;;;;;;84.90;24.50;;;;;;;0.14;100.00;97574.55;214135;1308;24533;-75
2022/12/10 17:14:30;;;;;;;57.70;18.50;;;;;;;0.12;100.00;97575.17;214194;1310;22511;-75
2022/12/10 17:19:35;;;;;;;60.10;19.30;;;;;;;0.08;100.00;97579.13;214297;1303;24681;-76
2022/12/10 17:24:37;;;;;;;67.80;22.70;;;;;;;0.05;100.00;97581.74;214195;1310;22475;-76
2022/12/10 17:29:42;;;;;;;74.60;22.70;;;;;;;0.04;100.00;97585.67;214176;1310;24100;-77
2022/12/10 17:34:45;;;;;;;63.60;21.00;;;;;;;0.05;100.00;97597.48;214110;1310;23421;-76
2022/12/10 17:39:47;;;;;;;75.10;22.40;;;;;;;0.07;100.00;97601.95;214057;1310;22483;-77
2022/12/10 17:44:49;;;;;;;58.30;18.50;;;;;;;0.08;100.00;97601.05;214057;1294;24176;-77
2022/12/10 17:49:52;;;;;;;81.10;23.00;;;;;;;0.08;100.00;97587.67;214086;1310;22822;-78
2022/12/10 17:54:53;;;;;;;64.80;21.70;;;;;;;0.09;100.00;97581.09;214146;1310;22492;-76
2022/12/10 17:59:55;;;;;;;63.40;20.00;;;;;;;0.08;100.00;97582.03;214159;1310;22587;-76
2022/12/10 18:04:57;;;;;;;75.10;24.60;;;;;;;0.08;100.00;97581.62;214065;1310;26396;-75
2022/12/10 18:09:59;;;;;;;71.50;22.60;;;;;;;0.07;100.00;97576.55;214046;1310;24255;-77
2022/12/10 18:15:02;;;;;;;76.20;22.90;;;;;;;0.05;100.00;97577.65;214125;1310;24115;-76
2022/12/10 18:20:05;;;;;;;68.80;22.50;;;;;;;0.06;100.00;97577.13;214079;1310;22469;-75
2022/12/10 18:25:07;;;;;;;73.10;23.20;;;;;;;0.07;100.00;97577.20;214108;1310;22470;-76
2022/12/10 18:30:17;;;;;;;64.00;20.60;;;;;;;0.07;100.00;97576.70;214164;1310;22468;-76
2022/12/10 18:35:19;;;;;;;53.90;17.50;;;;;;;0.07;100.00;97572.66;213938;1310;25468;-75
2022/12/10 18:40:21;;;;;;;69.60;21.80;;;;;;;0.09;100.00;97573.88;214074;1310;25473;-76
2022/12/10 18:45:23;;;;;;;53.60;18.80;;;;;;;0.12;100.00;97579.34;213961;1310;22479;-76
2022/12/10 18:50:27;;;;;;;69.20;23.50;;;;;;;0.12;100.00;97582.08;214227;1310;22490;-75
2022/12/10 18:55:29;;;;;;;62.10;20.60;;;;;;;0.13;100.00;97575.82;214112;1311;22644;-76
2022/12/10 19:00:34;;;;;;;69.70;22.10;;;;;;;0.13;100.00;97566.86;214236;1304;22518;-76
2022/12/10 19:05:36;;;;;;;62.50;22.30;;;;;;;0.14;100.00;97569.77;214313;1310;22478;-76
2022/12/10 19:10:39;;;;;;;83.80;24.30;;;;;;;0.14;100.00;97569.14;214107;1310;25450;-76
2022/12/10 19:15:40;;;;;;;63.70;21.50;;;;;;;0.13;100.00;97566.02;214156;1310;22580;-76
2022/12/10 19:20:44;;;;;;;66.80;22.20;;;;;;;0.11;100.00;97565.89;214035;1310;24564;-77
2022/12/10 19:25:46;;;;;;;60.50;20.90;;;;;;;0.10;100.00;97570.57;214225;1310;23772;-76
2022/12/10 19:30:48;;;;;;;56.20;19.10;;;;;;;0.08;100.00;97567.77;214196;1311;24359;-77
2022/12/10 19:35:51;;;;;;;65.10;20.60;;;;;;;0.07;100.00;97574.23;214533;1310;24307;-77
2022/12/10 19:40:52;;;;;;;65.20;20.30;;;;;;;0.06;100.00;97571.17;214060;1311;23897;-76
2022/12/10 19:45:55;;;;;;;65.60;22.50;;;;;;;0.06;100.00;97578.66;213951;1310;23735;-76
2022/12/10 19:50:57;;;;;;;63.50;22.60;;;;;;;0.05;100.00;97580.80;214185;1311;26586;-78
2022/12/10 19:55:59;;;;;;;68.70;23.70;;;;;;;0.05;100.00;97576.73;214196;1311;24432;-77
2022/12/10 20:01:05;;;;;;;76.50;24.40;;;;;;;0.02;100.00;97569.77;214096;1312;22506;-76
2022/12/10 20:06:12;;;;;;;75.30;25.30;;;;;;;0.00;100.00;97564.07;214242;1310;22469;-77
2022/12/10 20:11:14;;;;;;;80.60;25.10;;;;;;;-0.01;100.00;97559.73;214301;1310;24334;-77
2022/12/10 20:16:20;;;;;;;64.80;23.50;;;;;;;-0.03;100.00;97550.35;214285;1310;22473;-77
2022/12/10 20:21:23;;;;;;;55.40;19.40;;;;;;;-0.04;100.00;97546.08;214222;1310;25251;-78
2022/12/10 20:26:31;;;;;;;62.20;23.20;;;;;;;-0.04;100.00;97544.48;214233;1310;24329;-77
2022/12/10 20:31:33;;;;;;;68.30;25.70;;;;;;;-0.07;100.00;97544.72;214301;1309;22605;-77
2022/12/10 20:36:37;;;;;;;64.20;24.20;;;;;;;-0.11;100.00;97543.21;214369;1310;24306;-77
2022/12/10 20:41:40;;;;;;;49.40;21.40;;;;;;;-0.13;100.00;97540.14;214361;1310;25350;-77
2022/12/10 20:46:43;;;;;;;46.50;21.10;;;;;;;-0.16;100.00;97543.37;214239;1310;22487;-80
2022/12/10 20:51:46;;;;;;;64.70;22.50;;;;;;;-0.18;100.00;97540.63;214259;1310;22472;-78
2022/12/10 20:56:49;;;;;;;75.10;24.40;;;;;;;-0.16;100.00;97541.80;214291;1310;22473;-78
2022/12/10 21:01:51;;;;;;;74.90;24.50;;;;;;;-0.17;100.00;97530.20;214236;1310;22443;-76
2022/12/10 21:06:53;;;;;;;63.60;23.30;;;;;;;-0.19;100.00;97524.23;214222;1310;22538;-77
2022/12/10 21:11:55;;;;;;;62.50;22.40;;;;;;;-0.21;100.00;97521.91;214345;1310;22512;-77
2022/12/10 21:16:57;;;;;;;57.20;22.10;;;;;;;-0.22;100.00;97527.20;214270;1310;24360;-77
2022/12/10 21:21:59;;;;;;;53.90;19.90;;;;;;;-0.22;100.00;97526.04;214310;1310;24119;-76
2022/12/10 21:27:01;;;;;;;63.00;23.00;;;;;;;-0.22;100.00;97524.88;214389;1310;24404;-77
2022/12/10 21:32:03;;;;;;;59.60;21.20;;;;;;;-0.22;100.00;97525.67;214263;1310;24302;-76
2022/12/10 21:37:05;;;;;;;54.50;21.40;;;;;;;-0.22;100.00;97531.79;214330;1310;22491;-77
2022/12/10 21:47:31;;;;;;;56.30;21.00;;;;;;;-0.22;100.00;97537.41;214316;1310;22484;-77
2022/12/10 21:52:33;;;;;;;54.10;19.70;;;;;;;-0.22;100.00;97532.99;214016;1310;22941;-76
2022/12/10 21:57:35;;;;;;;43.20;18.10;;;;;;;-0.22;100.00;97523.41;214136;1309;24324;-77
2022/12/10 22:02:38;;;;;;;52.80;20.60;;;;;;;-0.23;100.00;97530.14;214192;1309;22477;-76
2022/12/10 22:07:41;;;;;;;45.70;18.80;;;;;;;-0.25;100.00;97527.70;214371;1309;23912;-77
2022/12/10 22:12:50;;;;;;;55.70;21.10;;;;;;;-0.27;100.00;97519.94;214449;1304;22478;-76
2022/12/10 22:17:52;;;;;;;43.80;17.40;;;;;;;-0.29;100.00;97516.88;213931;1309;23555;-78
2022/12/10 22:22:56;;;;;;;48.60;18.80;;;;;;;-0.31;100.00;97516.41;214264;1309;25367;-77
2022/12/10 22:27:58;;;;;;;39.20;16.20;;;;;;;-0.31;100.00;97513.64;213947;1309;22617;-77
2022/12/10 22:33:01;;;;;;;47.50;18.30;;;;;;;-0.31;100.00;97515.33;214293;1310;22488;-76
2022/12/10 22:38:05;;;;;;;40.90;16.30;;;;;;;-0.29;100.00;97517.30;214092;1310;116143;-76
2022/12/10 22:43:07;;;;;;;44.70;16.50;;;;;;;-0.28;100.00;97511.66;214232;1304;22471;-77
2022/12/10 22:48:33;;;;;;;50.30;18.70;;;;;;;-0.28;100.00;97507.09;214280;1310;22524;-77
2022/12/10 22:53:35;;;;;;;52.90;20.10;;;;;;;-0.26;100.00;97504.73;214304;1310;22527;-77
2022/12/10 22:58:38;;;;;;;54.40;19.70;;;;;;;-0.25;100.00;97504.28;214288;1310;22521;-77
2022/12/10 23:03:40;;;;;;;51.10;19.90;;;;;;;-0.25;100.00;97507.91;214461;1310;24262;-77
2022/12/10 23:08:42;;;;;;;53.50;18.80;;;;;;;-0.24;100.00;97510.03;214287;1309;22525;-77
2022/12/10 23:13:44;;;;;;;58.30;20.30;;;;;;;-0.22;100.00;97511.36;214161;1310;24359;-76
2022/12/10 23:18:49;;;;;;;51.60;19.80;;;;;;;-0.22;100.00;97500.62;214238;1310;22611;-77
2022/12/10 23:23:52;;;;;;;51.10;20.60;;;;;;;-0.23;100.00;97494.66;214452;1309;25457;-77
2022/12/10 23:28:54;;;;;;;66.40;21.50;;;;;;;-0.24;100.00;97493.45;214136;1310;22530;-76
2022/12/10 23:33:56;;;;;;;46.50;19.00;;;;;;;-0.25;100.00;97486.86;214243;1310;25373;-77
2022/12/10 23:38:58;;;;;;;56.60;18.70;;;;;;;-0.26;100.00;97482.38;214217;1310;25458;-77